Terminal Aerodrome Forecast
Issued by NWS

Home | Current Version | Previous Version | Text Only | Print | Product List | Glossary On
Versions: 1 2 3 4 5 6 7 8 9 10 11 12 13 14 15 16 17
000
FTUS46 KSEW 200520
TAFPAE
TAF
KPAE 200520Z 2006/2106 16012KT P6SM FEW025 SCT040 BKN100
      TEMPO 2006/2010 -SHRA BKN025 OVC040
     FM201000 19008KT P6SM -SHRA SCT010 OVC020
     FM202000 20014G22KT P6SM -SHRA SCT030 BKN050 OVC100
     FM210100 18008KT P6SM SCT035 BKN080 OVC120=

USA.gov is the U.S. government's official web portal to all federal, state and local government web resources and services.